sensor_id;sensor_type;location;lat;lon;timestamp;P1;durP1;ratioP1;P2;durP2;ratioP2
46835;SDS011;32573;51.290;6.926;2023-02-01T00:01:26;12.73;;;5.22;;
46835;SDS011;32573;51.290;6.926;2023-02-01T00:03:55;10.30;;;4.85;;
46835;SDS011;32573;51.290;6.926;2023-02-01T00:06:23;10.57;;;4.68;;
46835;SDS011;32573;51.290;6.926;2023-02-01T00:08:52;15.48;;;5.03;;
46835;SDS011;32573;51.290;6.926;2023-02-01T00:11:22;12.15;;;4.70;;
46835;SDS011;32573;51.290;6.926;2023-02-01T00:13:52;11.95;;;5.32;;
46835;SDS011;32573;51.290;6.926;2023-02-01T00:16:22;12.48;;;4.68;;
46835;SDS011;32573;51.290;6.926;2023-02-01T00:18:56;12.52;;;5.35;;
46835;SDS011;32573;51.290;6.926;2023-02-01T00:21:26;11.98;;;4.53;;
46835;SDS011;32573;51.290;6.926;2023-02-01T00:23:55;10.77;;;4.93;;
46835;SDS011;32573;51.290;6.926;2023-02-01T00:26:25;10.90;;;4.68;;
46835;SDS011;32573;51.290;6.926;2023-02-01T00:28:58;9.45;;;4.13;;
46835;SDS011;32573;51.290;6.926;2023-02-01T00:31:27;12.45;;;4.45;;
46835;SDS011;32573;51.290;6.926;2023-02-01T00:33:57;10.23;;;5.18;;
46835;SDS011;32573;51.290;6.926;2023-02-01T00:36:26;13.90;;;5.03;;
46835;SDS011;32573;51.290;6.926;2023-02-01T00:38:55;11.38;;;5.00;;
46835;SDS011;32573;51.290;6.926;2023-02-01T00:41:24;14.02;;;5.22;;
46835;SDS011;32573;51.290;6.926;2023-02-01T00:43:53;11.48;;;5.13;;
46835;SDS011;32573;51.290;6.926;2023-02-01T00:46:22;13.30;;;5.47;;
46835;SDS011;32573;51.290;6.926;2023-02-01T00:48:51;12.20;;;5.80;;
46835;SDS011;32573;51.290;6.926;2023-02-01T00:51:21;11.68;;;5.40;;
46835;SDS011;32573;51.290;6.926;2023-02-01T00:53:52;13.65;;;6.57;;
46835;SDS011;32573;51.290;6.926;2023-02-01T00:56:21;14.30;;;5.95;;
46835;SDS011;32573;51.290;6.926;2023-02-01T00:58:50;17.02;;;7.72;;
46835;SDS011;32573;51.290;6.926;2023-02-01T01:01:19;13.07;;;6.70;;
46835;SDS011;32573;51.290;6.926;2023-02-01T01:03:50;17.38;;;7.13;;
46835;SDS011;32573;51.290;6.926;2023-02-01T01:06:22;13.07;;;6.47;;
46835;SDS011;32573;51.290;6.926;2023-02-01T01:08:53;13.57;;;6.45;;
46835;SDS011;32573;51.290;6.926;2023-02-01T01:11:23;14.98;;;7.40;;
46835;SDS011;32573;51.290;6.926;2023-02-01T01:13:53;16.73;;;7.97;;
46835;SDS011;32573;51.290;6.926;2023-02-01T01:16:24;16.02;;;6.97;;
46835;SDS011;32573;51.290;6.926;2023-02-01T01:18:54;12.13;;;6.10;;
46835;SDS011;32573;51.290;6.926;2023-02-01T01:21:25;15.27;;;6.60;;
46835;SDS011;32573;51.290;6.926;2023-02-01T01:23:54;17.45;;;6.93;;
46835;SDS011;32573;51.290;6.926;2023-02-01T01:26:24;13.48;;;6.32;;
46835;SDS011;32573;51.290;6.926;2023-02-01T01:28:54;10.52;;;5.22;;
46835;SDS011;32573;51.290;6.926;2023-02-01T01:31:24;14.38;;;5.60;;
46835;SDS011;32573;51.290;6.926;2023-02-01T01:33:54;11.75;;;5.47;;
46835;SDS011;32573;51.290;6.926;2023-02-01T01:36:26;12.50;;;5.18;;
46835;SDS011;32573;51.290;6.926;2023-02-01T01:38:55;12.02;;;4.63;;
46835;SDS011;32573;51.290;6.926;2023-02-01T01:41:25;12.57;;;4.65;;
46835;SDS011;32573;51.290;6.926;2023-02-01T01:44:02;14.05;;;5.10;;
46835;SDS011;32573;51.290;6.926;2023-02-01T01:46:33;13.48;;;4.80;;
46835;SDS011;32573;51.290;6.926;2023-02-01T01:49:05;13.02;;;4.53;;
46835;SDS011;32573;51.290;6.926;2023-02-01T01:51:38;9.90;;;4.47;;
46835;SDS011;32573;51.290;6.926;2023-02-01T01:54:13;10.48;;;4.25;;
46835;SDS011;32573;51.290;6.926;2023-02-01T01:56:45;15.73;;;4.30;;
46835;SDS011;32573;51.290;6.926;2023-02-01T01:59:17;10.60;;;3.50;;
46835;SDS011;32573;51.290;6.926;2023-02-01T02:01:45;12.98;;;3.90;;
46835;SDS011;32573;51.290;6.926;2023-02-01T02:04:14;9.95;;;3.35;;
46835;SDS011;32573;51.290;6.926;2023-02-01T02:06:45;8.88;;;3.15;;
46835;SDS011;32573;51.290;6.926;2023-02-01T02:09:17;11.60;;;3.47;;
46835;SDS011;32573;51.290;6.926;2023-02-01T02:11:48;10.13;;;3.22;;
46835;SDS011;32573;51.290;6.926;2023-02-01T02:14:17;10.70;;;3.08;;
46835;SDS011;32573;51.290;6.926;2023-02-01T02:16:52;9.30;;;3.10;;
46835;SDS011;32573;51.290;6.926;2023-02-01T02:35:21;10.10;;;3.20;;
46835;SDS011;32573;51.290;6.926;2023-02-01T02:38:01;8.23;;;2.50;;
46835;SDS011;32573;51.290;6.926;2023-02-01T02:40:42;9.32;;;2.63;;
46835;SDS011;32573;51.290;6.926;2023-02-01T02:43:19;12.43;;;3.30;;
46835;SDS011;32573;51.290;6.926;2023-02-01T02:46:11;9.38;;;2.70;;
46835;SDS011;32573;51.290;6.926;2023-02-01T02:49:09;9.52;;;2.65;;
46835;SDS011;32573;51.290;6.926;2023-02-01T02:51:45;9.38;;;2.83;;
46835;SDS011;32573;51.290;6.926;2023-02-01T02:54:48;10.40;;;2.85;;
46835;SDS011;32573;51.290;6.926;2023-02-01T02:57:22;7.85;;;2.28;;
46835;SDS011;32573;51.290;6.926;2023-02-01T03:00:12;7.80;;;2.38;;
46835;SDS011;32573;51.290;6.926;2023-02-01T03:03:01;8.45;;;2.45;;
46835;SDS011;32573;51.290;6.926;2023-02-01T03:05:48;8.00;;;2.55;;
46835;SDS011;32573;51.290;6.926;2023-02-01T03:08:20;12.77;;;2.67;;
46835;SDS011;32573;51.290;6.926;2023-02-01T03:10:51;9.15;;;2.55;;
46835;SDS011;32573;51.290;6.926;2023-02-01T03:13:28;8.18;;;2.60;;
46835;SDS011;32573;51.290;6.926;2023-02-01T03:16:04;5.35;;;1.90;;
46835;SDS011;32573;51.290;6.926;2023-02-01T03:18:42;9.98;;;2.33;;
46835;SDS011;32573;51.290;6.926;2023-02-01T03:21:18;10.13;;;2.67;;
46835;SDS011;32573;51.290;6.926;2023-02-01T03:23:51;9.48;;;2.45;;
46835;SDS011;32573;51.290;6.926;2023-02-01T03:26:22;12.65;;;2.92;;
46835;SDS011;32573;51.290;6.926;2023-02-01T03:28:57;8.02;;;2.55;;
46835;SDS011;32573;51.290;6.926;2023-02-01T03:31:31;8.82;;;2.25;;
46835;SDS011;32573;51.290;6.926;2023-02-01T03:34:00;8.85;;;2.53;;
46835;SDS011;32573;51.290;6.926;2023-02-01T03:36:31;8.27;;;2.83;;
46835;SDS011;32573;51.290;6.926;2023-02-01T03:39:06;8.30;;;2.45;;
46835;SDS011;32573;51.290;6.926;2023-02-01T03:41:42;11.23;;;3.35;;
46835;SDS011;32573;51.290;6.926;2023-02-01T03:44:16;9.07;;;2.58;;
46835;SDS011;32573;51.290;6.926;2023-02-01T03:46:54;14.35;;;2.88;;
46835;SDS011;32573;51.290;6.926;2023-02-01T03:49:26;13.35;;;3.38;;
46835;SDS011;32573;51.290;6.926;2023-02-01T03:51:58;9.85;;;3.13;;
46835;SDS011;32573;51.290;6.926;2023-02-01T03:54:29;11.32;;;2.95;;
46835;SDS011;32573;51.290;6.926;2023-02-01T03:56:59;9.30;;;2.78;;
46835;SDS011;32573;51.290;6.926;2023-02-01T03:59:31;13.75;;;2.78;;
46835;SDS011;32573;51.290;6.926;2023-02-01T04:01:59;7.55;;;2.78;;
46835;SDS011;32573;51.290;6.926;2023-02-01T04:04:28;10.68;;;2.70;;
46835;SDS011;32573;51.290;6.926;2023-02-01T04:06:57;10.35;;;2.92;;
46835;SDS011;32573;51.290;6.926;2023-02-01T04:09:25;11.40;;;2.50;;
46835;SDS011;32573;51.290;6.926;2023-02-01T04:11:55;12.68;;;3.40;;
46835;SDS011;32573;51.290;6.926;2023-02-01T04:14:24;11.90;;;3.13;;
46835;SDS011;32573;51.290;6.926;2023-02-01T04:16:52;12.65;;;3.20;;
46835;SDS011;32573;51.290;6.926;2023-02-01T04:19:21;11.38;;;3.08;;
46835;SDS011;32573;51.290;6.926;2023-02-01T04:21:49;12.95;;;2.72;;
46835;SDS011;32573;51.290;6.926;2023-02-01T04:24:18;14.15;;;2.78;;
46835;SDS011;32573;51.290;6.926;2023-02-01T04:26:46;13.00;;;2.72;;
46835;SDS011;32573;51.290;6.926;2023-02-01T04:29:16;11.90;;;2.55;;
46835;SDS011;32573;51.290;6.926;2023-02-01T04:31:45;10.82;;;2.58;;
46835;SDS011;32573;51.290;6.926;2023-02-01T04:34:13;13.13;;;2.95;;
46835;SDS011;32573;51.290;6.926;2023-02-01T04:36:42;13.82;;;3.15;;
46835;SDS011;32573;51.290;6.926;2023-02-01T04:39:13;13.65;;;3.00;;
46835;SDS011;32573;51.290;6.926;2023-02-01T04:41:42;10.73;;;2.58;;
46835;SDS011;32573;51.290;6.926;2023-02-01T04:44:10;7.47;;;2.42;;
46835;SDS011;32573;51.290;6.926;2023-02-01T04:46:43;12.73;;;3.00;;
46835;SDS011;32573;51.290;6.926;2023-02-01T04:49:13;11.70;;;2.70;;
46835;SDS011;32573;51.290;6.926;2023-02-01T04:51:42;9.70;;;2.83;;
46835;SDS011;32573;51.290;6.926;2023-02-01T04:54:11;13.30;;;3.05;;
46835;SDS011;32573;51.290;6.926;2023-02-01T04:56:39;10.38;;;2.63;;
46835;SDS011;32573;51.290;6.926;2023-02-01T04:59:09;20.05;;;3.72;;
46835;SDS011;32573;51.290;6.926;2023-02-01T05:01:38;13.60;;;3.10;;
46835;SDS011;32573;51.290;6.926;2023-02-01T05:04:08;10.65;;;2.75;;
46835;SDS011;32573;51.290;6.926;2023-02-01T05:06:37;11.15;;;3.05;;
46835;SDS011;32573;51.290;6.926;2023-02-01T05:09:05;14.95;;;3.75;;
46835;SDS011;32573;51.290;6.926;2023-02-01T05:11:34;9.90;;;2.95;;
46835;SDS011;32573;51.290;6.926;2023-02-01T05:14:20;14.93;;;3.28;;
46835;SDS011;32573;51.290;6.926;2023-02-01T05:16:48;9.35;;;2.60;;
46835;SDS011;32573;51.290;6.926;2023-02-01T05:19:18;13.00;;;3.10;;
46835;SDS011;32573;51.290;6.926;2023-02-01T05:21:47;12.80;;;2.95;;
46835;SDS011;32573;51.290;6.926;2023-02-01T05:24:15;11.30;;;2.83;;
46835;SDS011;32573;51.290;6.926;2023-02-01T05:26:47;10.10;;;2.65;;
46835;SDS011;32573;51.290;6.926;2023-02-01T05:29:16;11.13;;;2.58;;
46835;SDS011;32573;51.290;6.926;2023-02-01T05:31:47;12.13;;;3.20;;
46835;SDS011;32573;51.290;6.926;2023-02-01T05:34:16;14.40;;;2.78;;
46835;SDS011;32573;51.290;6.926;2023-02-01T05:36:46;12.20;;;2.95;;
46835;SDS011;32573;51.290;6.926;2023-02-01T05:39:14;10.02;;;2.95;;
46835;SDS011;32573;51.290;6.926;2023-02-01T05:41:43;16.08;;;3.08;;
46835;SDS011;32573;51.290;6.926;2023-02-01T05:44:11;17.15;;;3.40;;
46835;SDS011;32573;51.290;6.926;2023-02-01T05:46:40;10.13;;;2.50;;
46835;SDS011;32573;51.290;6.926;2023-02-01T05:49:08;10.13;;;2.83;;
46835;SDS011;32573;51.290;6.926;2023-02-01T05:51:37;11.10;;;2.80;;
46835;SDS011;32573;51.290;6.926;2023-02-01T05:54:07;16.17;;;3.10;;
46835;SDS011;32573;51.290;6.926;2023-02-01T05:56:36;13.40;;;2.80;;
46835;SDS011;32573;51.290;6.926;2023-02-01T05:59:05;7.65;;;2.25;;
46835;SDS011;32573;51.290;6.926;2023-02-01T06:01:33;8.02;;;2.50;;
46835;SDS011;32573;51.290;6.926;2023-02-01T06:04:02;11.18;;;2.90;;
46835;SDS011;32573;51.290;6.926;2023-02-01T06:06:31;13.63;;;2.50;;
46835;SDS011;32573;51.290;6.926;2023-02-01T06:08:59;9.63;;;2.40;;
46835;SDS011;32573;51.290;6.926;2023-02-01T06:11:29;14.57;;;3.42;;
46835;SDS011;32573;51.290;6.926;2023-02-01T06:13:59;7.28;;;2.40;;
46835;SDS011;32573;51.290;6.926;2023-02-01T06:16:28;14.82;;;3.30;;
46835;SDS011;32573;51.290;6.926;2023-02-01T06:18:58;11.57;;;3.15;;
46835;SDS011;32573;51.290;6.926;2023-02-01T06:21:27;16.67;;;3.22;;
46835;SDS011;32573;51.290;6.926;2023-02-01T06:23:55;14.18;;;2.92;;
46835;SDS011;32573;51.290;6.926;2023-02-01T06:26:24;14.98;;;2.95;;
46835;SDS011;32573;51.290;6.926;2023-02-01T06:28:56;9.60;;;2.85;;
46835;SDS011;32573;51.290;6.926;2023-02-01T06:31:25;12.60;;;2.85;;
46835;SDS011;32573;51.290;6.926;2023-02-01T06:33:54;12.90;;;3.10;;
46835;SDS011;32573;51.290;6.926;2023-02-01T06:36:22;13.30;;;2.80;;
46835;SDS011;32573;51.290;6.926;2023-02-01T06:38:51;8.45;;;2.70;;
46835;SDS011;32573;51.290;6.926;2023-02-01T06:41:19;13.00;;;3.00;;
46835;SDS011;32573;51.290;6.926;2023-02-01T06:43:48;11.02;;;2.92;;
46835;SDS011;32573;51.290;6.926;2023-02-01T06:46:18;12.90;;;3.20;;
46835;SDS011;32573;51.290;6.926;2023-02-01T06:48:48;12.20;;;2.92;;
46835;SDS011;32573;51.290;6.926;2023-02-01T06:51:19;11.23;;;2.70;;
46835;SDS011;32573;51.290;6.926;2023-02-01T06:53:48;17.75;;;3.50;;
46835;SDS011;32573;51.290;6.926;2023-02-01T06:56:17;16.02;;;3.28;;
46835;SDS011;32573;51.290;6.926;2023-02-01T06:58:46;14.60;;;3.33;;
46835;SDS011;32573;51.290;6.926;2023-02-01T07:01:16;18.05;;;2.88;;
46835;SDS011;32573;51.290;6.926;2023-02-01T07:03:48;9.52;;;2.63;;
46835;SDS011;32573;51.290;6.926;2023-02-01T07:06:18;12.20;;;2.90;;
46835;SDS011;32573;51.290;6.926;2023-02-01T07:08:47;12.25;;;2.70;;
46835;SDS011;32573;51.290;6.926;2023-02-01T07:11:16;13.10;;;2.67;;
46835;SDS011;32573;51.290;6.926;2023-02-01T07:13:45;14.32;;;3.00;;
46835;SDS011;32573;51.290;6.926;2023-02-01T07:16:15;11.10;;;2.55;;
46835;SDS011;32573;51.290;6.926;2023-02-01T07:18:45;11.27;;;2.60;;
46835;SDS011;32573;51.290;6.926;2023-02-01T07:21:18;14.98;;;2.78;;
46835;SDS011;32573;51.290;6.926;2023-02-01T07:23:47;9.77;;;2.58;;
46835;SDS011;32573;51.290;6.926;2023-02-01T07:26:15;10.00;;;2.67;;
46835;SDS011;32573;51.290;6.926;2023-02-01T07:28:44;13.88;;;2.92;;
46835;SDS011;32573;51.290;6.926;2023-02-01T07:31:14;12.63;;;3.13;;
46835;SDS011;32573;51.290;6.926;2023-02-01T07:33:45;14.48;;;3.13;;
46835;SDS011;32573;51.290;6.926;2023-02-01T07:36:16;8.23;;;2.75;;
46835;SDS011;32573;51.290;6.926;2023-02-01T07:38:45;15.35;;;2.88;;
46835;SDS011;32573;51.290;6.926;2023-02-01T07:41:15;12.38;;;3.10;;
46835;SDS011;32573;51.290;6.926;2023-02-01T07:43:44;11.63;;;2.58;;
46835;SDS011;32573;51.290;6.926;2023-02-01T07:46:12;15.38;;;3.08;;
46835;SDS011;32573;51.290;6.926;2023-02-01T07:48:42;11.77;;;3.15;;
46835;SDS011;32573;51.290;6.926;2023-02-01T07:51:11;12.90;;;3.15;;
46835;SDS011;32573;51.290;6.926;2023-02-01T07:53:45;12.53;;;2.83;;
46835;SDS011;32573;51.290;6.926;2023-02-01T07:56:15;9.27;;;2.83;;
46835;SDS011;32573;51.290;6.926;2023-02-01T07:58:47;16.13;;;3.28;;
46835;SDS011;32573;51.290;6.926;2023-02-01T08:01:16;16.30;;;3.10;;
46835;SDS011;32573;51.290;6.926;2023-02-01T08:03:48;11.88;;;2.42;;
46835;SDS011;32573;51.290;6.926;2023-02-01T08:06:18;10.65;;;2.25;;
46835;SDS011;32573;51.290;6.926;2023-02-01T08:08:49;11.93;;;2.80;;
46835;SDS011;32573;51.290;6.926;2023-02-01T08:11:18;11.70;;;2.95;;
46835;SDS011;32573;51.290;6.926;2023-02-01T08:13:51;13.13;;;3.17;;
46835;SDS011;32573;51.290;6.926;2023-02-01T08:16:21;11.93;;;2.78;;
46835;SDS011;32573;51.290;6.926;2023-02-01T08:18:51;12.73;;;2.80;;
46835;SDS011;32573;51.290;6.926;2023-02-01T08:21:21;10.55;;;2.67;;
46835;SDS011;32573;51.290;6.926;2023-02-01T08:23:52;10.18;;;2.83;;
46835;SDS011;32573;51.290;6.926;2023-02-01T08:26:24;10.65;;;3.00;;
46835;SDS011;32573;51.290;6.926;2023-02-01T08:28:54;12.52;;;2.95;;
46835;SDS011;32573;51.290;6.926;2023-02-01T08:31:24;13.13;;;3.40;;
46835;SDS011;32573;51.290;6.926;2023-02-01T08:33:55;11.60;;;3.08;;
46835;SDS011;32573;51.290;6.926;2023-02-01T08:36:26;15.63;;;3.13;;
46835;SDS011;32573;51.290;6.926;2023-02-01T08:38:57;11.43;;;3.20;;
46835;SDS011;32573;51.290;6.926;2023-02-01T08:41:27;14.57;;;3.55;;
46835;SDS011;32573;51.290;6.926;2023-02-01T08:43:57;12.57;;;3.35;;
46835;SDS011;32573;51.290;6.926;2023-02-01T08:46:26;12.05;;;3.30;;
46835;SDS011;32573;51.290;6.926;2023-02-01T08:48:55;13.13;;;3.28;;
46835;SDS011;32573;51.290;6.926;2023-02-01T08:51:24;12.45;;;2.65;;
46835;SDS011;32573;51.290;6.926;2023-02-01T08:53:52;12.95;;;3.15;;
46835;SDS011;32573;51.290;6.926;2023-02-01T08:56:22;13.98;;;2.88;;
46835;SDS011;32573;51.290;6.926;2023-02-01T08:58:51;9.45;;;2.63;;
46835;SDS011;32573;51.290;6.926;2023-02-01T09:01:20;12.80;;;3.08;;
46835;SDS011;32573;51.290;6.926;2023-02-01T09:03:51;11.90;;;2.88;;
46835;SDS011;32573;51.290;6.926;2023-02-01T09:06:22;13.73;;;2.95;;
46835;SDS011;32573;51.290;6.926;2023-02-01T09:08:53;17.23;;;3.22;;
46835;SDS011;32573;51.290;6.926;2023-02-01T09:11:23;12.18;;;3.15;;
46835;SDS011;32573;51.290;6.926;2023-02-01T09:13:52;13.90;;;3.08;;
46835;SDS011;32573;51.290;6.926;2023-02-01T09:16:21;16.27;;;3.40;;
46835;SDS011;32573;51.290;6.926;2023-02-01T09:18:49;13.93;;;3.10;;
46835;SDS011;32573;51.290;6.926;2023-02-01T09:21:38;12.02;;;3.10;;
46835;SDS011;32573;51.290;6.926;2023-02-01T09:24:08;13.10;;;3.60;;
46835;SDS011;32573;51.290;6.926;2023-02-01T09:26:39;10.52;;;3.42;;
46835;SDS011;32573;51.290;6.926;2023-02-01T09:29:07;13.35;;;3.88;;
46835;SDS011;32573;51.290;6.926;2023-02-01T09:31:38;16.55;;;4.07;;
46835;SDS011;32573;51.290;6.926;2023-02-01T09:34:16;13.98;;;3.47;;
46835;SDS011;32573;51.290;6.926;2023-02-01T09:36:44;12.32;;;3.13;;
46835;SDS011;32573;51.290;6.926;2023-02-01T09:39:12;9.73;;;3.42;;
46835;SDS011;32573;51.290;6.926;2023-02-01T09:41:45;11.15;;;2.67;;
46835;SDS011;32573;51.290;6.926;2023-02-01T09:44:31;16.63;;;3.60;;
46835;SDS011;32573;51.290;6.926;2023-02-01T09:47:12;12.63;;;3.60;;
46835;SDS011;32573;51.290;6.926;2023-02-01T09:49:45;15.10;;;3.80;;
46835;SDS011;32573;51.290;6.926;2023-02-01T09:52:21;14.13;;;3.80;;
46835;SDS011;32573;51.290;6.926;2023-02-01T09:54:55;15.82;;;3.80;;
46835;SDS011;32573;51.290;6.926;2023-02-01T10:00:09;15.30;;;3.45;;
46835;SDS011;32573;51.290;6.926;2023-02-01T10:02:45;12.27;;;3.85;;
46835;SDS011;32573;51.290;6.926;2023-02-01T10:05:14;11.65;;;3.42;;
46835;SDS011;32573;51.290;6.926;2023-02-01T10:07:47;9.85;;;3.38;;
46835;SDS011;32573;51.290;6.926;2023-02-01T10:10:28;15.68;;;3.97;;
46835;SDS011;32573;51.290;6.926;2023-02-01T10:13:15;9.55;;;3.00;;
46835;SDS011;32573;51.290;6.926;2023-02-01T10:15:58;19.30;;;4.50;;
46835;SDS011;32573;51.290;6.926;2023-02-01T10:18:44;12.18;;;3.67;;
46835;SDS011;32573;51.290;6.926;2023-02-01T10:21:27;12.13;;;3.75;;
46835;SDS011;32573;51.290;6.926;2023-02-01T10:24:12;10.50;;;3.47;;
46835;SDS011;32573;51.290;6.926;2023-02-01T10:26:54;11.75;;;3.70;;
46835;SDS011;32573;51.290;6.926;2023-02-01T10:29:30;10.90;;;3.33;;
46835;SDS011;32573;51.290;6.926;2023-02-01T10:32:08;14.80;;;3.75;;
46835;SDS011;32573;51.290;6.926;2023-02-01T10:34:48;11.52;;;3.42;;
46835;SDS011;32573;51.290;6.926;2023-02-01T10:37:24;14.63;;;3.60;;
46835;SDS011;32573;51.290;6.926;2023-02-01T10:39:55;12.75;;;3.90;;
46835;SDS011;32573;51.290;6.926;2023-02-01T10:42:27;12.77;;;3.38;;
46835;SDS011;32573;51.290;6.926;2023-02-01T10:44:59;12.88;;;3.60;;
46835;SDS011;32573;51.290;6.926;2023-02-01T10:47:31;11.60;;;3.30;;
46835;SDS011;32573;51.290;6.926;2023-02-01T10:50:02;13.95;;;3.58;;
46835;SDS011;32573;51.290;6.926;2023-02-01T10:52:48;14.13;;;3.90;;
46835;SDS011;32573;51.290;6.926;2023-02-01T10:55:32;13.43;;;3.90;;
46835;SDS011;32573;51.290;6.926;2023-02-01T10:58:06;11.05;;;3.67;;
46835;SDS011;32573;51.290;6.926;2023-02-01T11:00:45;14.65;;;3.72;;
46835;SDS011;32573;51.290;6.926;2023-02-01T11:03:19;13.38;;;3.33;;
46835;SDS011;32573;51.290;6.926;2023-02-01T11:05:58;12.18;;;3.25;;
46835;SDS011;32573;51.290;6.926;2023-02-01T11:08:27;9.23;;;3.08;;
46835;SDS011;32573;51.290;6.926;2023-02-01T11:10:57;13.98;;;3.67;;
46835;SDS011;32573;51.290;6.926;2023-02-01T11:13:28;11.07;;;3.13;;
46835;SDS011;32573;51.290;6.926;2023-02-01T11:16:00;17.10;;;4.00;;
46835;SDS011;32573;51.290;6.926;2023-02-01T11:18:31;11.32;;;3.42;;
46835;SDS011;32573;51.290;6.926;2023-02-01T11:21:04;11.75;;;3.30;;
46835;SDS011;32573;51.290;6.926;2023-02-01T11:23:38;12.90;;;3.30;;
46835;SDS011;32573;51.290;6.926;2023-02-01T11:26:10;11.07;;;3.28;;
46835;SDS011;32573;51.290;6.926;2023-02-01T11:28:44;14.40;;;3.33;;
46835;SDS011;32573;51.290;6.926;2023-02-01T11:31:20;12.73;;;3.30;;
46835;SDS011;32573;51.290;6.926;2023-02-01T11:33:50;9.52;;;3.00;;
46835;SDS011;32573;51.290;6.926;2023-02-01T11:36:23;12.93;;;3.55;;
46835;SDS011;32573;51.290;6.926;2023-02-01T11:38:54;10.27;;;3.22;;
46835;SDS011;32573;51.290;6.926;2023-02-01T11:41:41;11.23;;;3.15;;
46835;SDS011;32573;51.290;6.926;2023-02-01T11:44:18;11.57;;;3.50;;
46835;SDS011;32573;51.290;6.926;2023-02-01T11:46:51;11.40;;;3.78;;
46835;SDS011;32573;51.290;6.926;2023-02-01T11:49:20;10.13;;;3.17;;
46835;SDS011;32573;51.290;6.926;2023-02-01T11:51:54;14.07;;;3.30;;
46835;SDS011;32573;51.290;6.926;2023-02-01T11:54:36;11.52;;;3.15;;
46835;SDS011;32573;51.290;6.926;2023-02-01T11:59:56;14.88;;;3.78;;
46835;SDS011;32573;51.290;6.926;2023-02-01T12:02:57;10.93;;;3.55;;
46835;SDS011;32573;51.290;6.926;2023-02-01T12:05:48;10.73;;;3.33;;
46835;SDS011;32573;51.290;6.926;2023-02-01T12:08:35;10.95;;;3.28;;
46835;SDS011;32573;51.290;6.926;2023-02-01T12:11:25;13.85;;;3.63;;
46835;SDS011;32573;51.290;6.926;2023-02-01T12:16:47;9.13;;;3.33;;
46835;SDS011;32573;51.290;6.926;2023-02-01T12:19:29;10.95;;;2.97;;
46835;SDS011;32573;51.290;6.926;2023-02-01T12:22:15;15.95;;;3.78;;
46835;SDS011;32573;51.290;6.926;2023-02-01T12:25:16;10.75;;;3.63;;
46835;SDS011;32573;51.290;6.926;2023-02-01T12:28:03;10.57;;;3.40;;
46835;SDS011;32573;51.290;6.926;2023-02-01T12:31:08;10.55;;;3.58;;
46835;SDS011;32573;51.290;6.926;2023-02-01T12:34:19;14.18;;;3.50;;
46835;SDS011;32573;51.290;6.926;2023-02-01T12:37:14;9.43;;;3.00;;
46835;SDS011;32573;51.290;6.926;2023-02-01T12:39:53;12.65;;;3.30;;
46835;SDS011;32573;51.290;6.926;2023-02-01T12:42:31;9.23;;;3.20;;
46835;SDS011;32573;51.290;6.926;2023-02-01T12:45:03;10.60;;;3.30;;
46835;SDS011;32573;51.290;6.926;2023-02-01T12:47:44;11.82;;;3.60;;
46835;SDS011;32573;51.290;6.926;2023-02-01T12:50:20;9.00;;;3.20;;
46835;SDS011;32573;51.290;6.926;2023-02-01T12:52:53;12.52;;;3.50;;
46835;SDS011;32573;51.290;6.926;2023-02-01T12:55:27;10.48;;;3.25;;
46835;SDS011;32573;51.290;6.926;2023-02-01T12:58:04;12.93;;;3.40;;
46835;SDS011;32573;51.290;6.926;2023-02-01T13:00:40;11.80;;;3.13;;
46835;SDS011;32573;51.290;6.926;2023-02-01T13:03:15;9.57;;;3.25;;
46835;SDS011;32573;51.290;6.926;2023-02-01T13:05:57;15.85;;;3.70;;
46835;SDS011;32573;51.290;6.926;2023-02-01T13:08:33;13.55;;;3.50;;
46835;SDS011;32573;51.290;6.926;2023-02-01T13:11:08;13.77;;;3.50;;
46835;SDS011;32573;51.290;6.926;2023-02-01T13:13:44;13.52;;;3.10;;
46835;SDS011;32573;51.290;6.926;2023-02-01T13:16:22;11.50;;;2.70;;
46835;SDS011;32573;51.290;6.926;2023-02-01T13:19:00;12.75;;;2.92;;
46835;SDS011;32573;51.290;6.926;2023-02-01T13:21:35;11.57;;;2.60;;
46835;SDS011;32573;51.290;6.926;2023-02-01T13:24:26;9.27;;;3.10;;
46835;SDS011;32573;51.290;6.926;2023-02-01T13:26:59;12.05;;;3.00;;
46835;SDS011;32573;51.290;6.926;2023-02-01T13:29:28;14.02;;;2.85;;
46835;SDS011;32573;51.290;6.926;2023-02-01T13:32:02;10.13;;;2.67;;
46835;SDS011;32573;51.290;6.926;2023-02-01T13:34:52;11.68;;;2.80;;
46835;SDS011;32573;51.290;6.926;2023-02-01T13:37:42;11.70;;;2.83;;
46835;SDS011;32573;51.290;6.926;2023-02-01T13:40:31;8.18;;;2.20;;
46835;SDS011;32573;51.290;6.926;2023-02-01T13:43:06;7.15;;;2.13;;
46835;SDS011;32573;51.290;6.926;2023-02-01T13:45:43;10.82;;;2.50;;
46835;SDS011;32573;51.290;6.926;2023-02-01T13:48:20;10.85;;;2.47;;
46835;SDS011;32573;51.290;6.926;2023-02-01T13:50:52;9.85;;;2.10;;
46835;SDS011;32573;51.290;6.926;2023-02-01T13:53:25;9.02;;;1.92;;
46835;SDS011;32573;51.290;6.926;2023-02-01T13:55:58;6.03;;;1.88;;
46835;SDS011;32573;51.290;6.926;2023-02-01T13:58:30;7.70;;;2.35;;
46835;SDS011;32573;51.290;6.926;2023-02-01T14:04:03;14.40;;;2.80;;
46835;SDS011;32573;51.290;6.926;2023-02-01T14:06:38;10.13;;;2.20;;
46835;SDS011;32573;51.290;6.926;2023-02-01T14:09:16;12.40;;;2.63;;
46835;SDS011;32573;51.290;6.926;2023-02-01T14:11:48;8.18;;;2.15;;
46835;SDS011;32573;51.290;6.926;2023-02-01T14:23:21;13.73;;;2.33;;
46835;SDS011;32573;51.290;6.926;2023-02-01T14:26:12;9.93;;;2.15;;
46835;SDS011;32573;51.290;6.926;2023-02-01T14:28:49;8.55;;;2.50;;
46835;SDS011;32573;51.290;6.926;2023-02-01T14:34:10;10.25;;;2.00;;
46835;SDS011;32573;51.290;6.926;2023-02-01T14:36:44;6.75;;;1.90;;
46835;SDS011;32573;51.290;6.926;2023-02-01T14:39:23;6.80;;;1.90;;
46835;SDS011;32573;51.290;6.926;2023-02-01T14:41:57;7.85;;;1.83;;
46835;SDS011;32573;51.290;6.926;2023-02-01T14:44:30;9.30;;;2.22;;
46835;SDS011;32573;51.290;6.926;2023-02-01T14:53:01;9.50;;;2.63;;
46835;SDS011;32573;51.290;6.926;2023-02-01T14:55:40;8.70;;;2.20;;
46835;SDS011;32573;51.290;6.926;2023-02-01T14:58:16;13.57;;;2.13;;
46835;SDS011;32573;51.290;6.926;2023-02-01T15:00:50;9.82;;;2.30;;
46835;SDS011;32573;51.290;6.926;2023-02-01T15:03:23;9.05;;;2.17;;
46835;SDS011;32573;51.290;6.926;2023-02-01T15:06:02;9.80;;;2.13;;
46835;SDS011;32573;51.290;6.926;2023-02-01T15:08:33;10.90;;;2.20;;
46835;SDS011;32573;51.290;6.926;2023-02-01T15:11:06;7.20;;;2.15;;
46835;SDS011;32573;51.290;6.926;2023-02-01T15:13:49;12.98;;;2.38;;
46835;SDS011;32573;51.290;6.926;2023-02-01T15:16:21;8.52;;;2.15;;
46835;SDS011;32573;51.290;6.926;2023-02-01T15:19:06;8.70;;;2.30;;
46835;SDS011;32573;51.290;6.926;2023-02-01T15:21:46;10.13;;;1.95;;
46835;SDS011;32573;51.290;6.926;2023-02-01T15:24:20;8.55;;;2.05;;
46835;SDS011;32573;51.290;6.926;2023-02-01T15:26:51;11.82;;;2.28;;
46835;SDS011;32573;51.290;6.926;2023-02-01T15:29:23;11.43;;;2.78;;
46835;SDS011;32573;51.290;6.926;2023-02-01T15:31:54;11.77;;;2.47;;
46835;SDS011;32573;51.290;6.926;2023-02-01T15:34:23;10.40;;;2.38;;
46835;SDS011;32573;51.290;6.926;2023-02-01T15:37:11;12.65;;;2.65;;
46835;SDS011;32573;51.290;6.926;2023-02-01T15:42:51;10.20;;;2.45;;
46835;SDS011;32573;51.290;6.926;2023-02-01T15:45:24;9.18;;;2.33;;
46835;SDS011;32573;51.290;6.926;2023-02-01T15:47:55;8.00;;;2.38;;
46835;SDS011;32573;51.290;6.926;2023-02-01T15:50:26;8.63;;;2.53;;
46835;SDS011;32573;51.290;6.926;2023-02-01T15:52:57;10.23;;;2.67;;
46835;SDS011;32573;51.290;6.926;2023-02-01T15:55:29;9.98;;;2.60;;
46835;SDS011;32573;51.290;6.926;2023-02-01T15:58:05;12.43;;;2.70;;
46835;SDS011;32573;51.290;6.926;2023-02-01T16:00:41;9.70;;;2.20;;
46835;SDS011;32573;51.290;6.926;2023-02-01T16:03:24;8.77;;;2.13;;